Time;durP1;ratioP1;P1;durP2;ratioP2;P2;SDS_P1;SDS_P2;PMS_P1;PMS_P2;Temp;Humidity;BMP_temperature;BMP_pressure;BME280_temperature;BME280_humidity;BME280_pressure;Samples;Min_cycle;Max_cycle;Signal;HPM_P1;HPM_P2
2021/10/17 00:00:19;;;;;;;37.47;13.87;;;5.40;99.90;;;;;;4960987;28;20708;-61
2021/10/17 00:02:46;;;;;;;41.50;14.67;;;5.50;99.90;;;;;;4949130;29;20162;-62
2021/10/17 00:05:13;;;;;;;74.07;15.57;;;5.40;99.90;;;;;;4949808;29;20422;-61
2021/10/17 00:07:38;;;;;;;112.50;14.83;;;5.50;99.90;;;;;;4948108;29;20885;-61
2021/10/17 00:10:06;;;;;;;98.03;15.40;;;5.40;99.90;;;;;;4947871;28;21078;-61
2021/10/17 00:12:32;;;;;;;123.17;16.97;;;5.40;99.90;;;;;;4946840;29;20489;-61
2021/10/17 00:14:58;;;;;;;59.37;14.20;;;5.30;99.90;;;;;;4959409;28;20497;-61
2021/10/17 00:17:24;;;;;;;46.10;13.80;;;5.20;99.90;;;;;;4948436;28;20671;-61
2021/10/17 00:19:50;;;;;;;67.67;14.40;;;5.20;99.90;;;;;;4947208;29;20210;-60
2021/10/17 00:22:16;;;;;;;37.20;13.50;;;5.20;99.90;;;;;;4947384;29;20553;-61
2021/10/17 00:24:41;;;;;;;40.00;14.67;;;5.10;99.90;;;;;;4948458;28;20246;-61
2021/10/17 00:27:07;;;;;;;48.93;14.23;;;5.20;99.90;;;;;;4947009;29;20210;-61
2021/10/17 00:29:33;;;;;;;76.37;14.13;;;5.20;99.90;;;;;;4960988;28;20210;-61
2021/10/17 00:32:00;;;;;;;104.70;16.40;;;5.20;99.90;;;;;;4960371;28;20744;-61
2021/10/17 00:34:26;;;;;;;68.77;13.73;;;5.20;99.90;;;;;;4963561;28;20190;-61
2021/10/17 00:36:52;;;;;;;38.17;13.93;;;5.10;99.90;;;;;;4961335;28;20668;-61
2021/10/17 00:39:18;;;;;;;35.77;15.47;;;5.10;99.90;;;;;;4962664;28;20561;-61
2021/10/17 00:41:45;;;;;;;44.93;14.10;;;5.10;99.90;;;;;;4947895;29;20185;-61
2021/10/17 00:44:22;;;;;;;39.30;11.10;;;5.10;99.90;;;;;;4948152;28;20284;-61
2021/10/17 00:46:49;;;;;;;58.87;12.33;;;5.00;99.90;;;;;;4961436;28;20465;-61
2021/10/17 00:49:16;;;;;;;21.70;11.43;;;5.00;99.90;;;;;;4945596;28;20545;-61
2021/10/17 00:51:43;;;;;;;25.47;11.13;;;4.90;99.90;;;;;;4962850;28;20418;-61
2021/10/17 00:54:13;;;;;;;34.67;11.30;;;4.90;99.90;;;;;;4959628;28;20426;-61
2021/10/17 00:56:40;;;;;;;31.83;10.43;;;4.90;99.90;;;;;;4962533;28;20434;-60
2021/10/17 00:59:07;;;;;;;31.23;12.10;;;4.80;99.90;;;;;;4962970;28;20441;-61
2021/10/17 01:01:34;;;;;;;64.17;14.37;;;4.90;99.90;;;;;;4961475;28;20450;-58
2021/10/17 01:04:00;;;;;;;45.57;12.30;;;4.80;99.90;;;;;;4937734;28;20993;-62
2021/10/17 01:06:26;;;;;;;96.67;13.57;;;4.80;99.90;;;;;;4956133;28;20518;-61
2021/10/17 01:08:52;;;;;;;77.53;13.27;;;4.80;99.90;;;;;;4961474;28;21130;-61
2021/10/17 01:11:17;;;;;;;119.33;14.20;;;4.70;99.90;;;;;;4961998;28;20269;-61
2021/10/17 01:13:43;;;;;;;135.27;15.40;;;4.70;99.90;;;;;;4946004;29;20232;-60
2021/10/17 01:16:08;;;;;;;93.97;13.63;;;4.60;99.90;;;;;;4962212;28;20241;-60
2021/10/17 01:18:34;;;;;;;132.20;14.13;;;4.60;99.90;;;;;;4945700;29;20198;-61
2021/10/17 01:21:00;;;;;;;95.03;13.70;;;4.50;99.90;;;;;;4958820;28;20216;-61
2021/10/17 01:23:26;;;;;;;45.60;11.67;;;4.50;99.90;;;;;;4944137;29;20202;-61
2021/10/17 01:25:52;;;;;;;36.93;10.63;;;4.50;99.90;;;;;;4951802;28;20658;-60
2021/10/17 01:28:18;;;;;;;28.90;11.77;;;4.50;99.90;;;;;;4960599;28;21018;-60
2021/10/17 01:30:44;;;;;;;27.43;13.00;;;4.50;99.90;;;;;;4961140;28;20198;-61
2021/10/17 01:33:10;;;;;;;67.43;13.00;;;4.50;99.90;;;;;;4960015;28;20249;-59
2021/10/17 01:35:36;;;;;;;53.87;13.07;;;4.60;99.90;;;;;;4961574;28;20186;-60
2021/10/17 01:38:03;;;;;;;48.20;12.47;;;4.60;99.90;;;;;;4958537;28;20792;-61
2021/10/17 01:40:30;;;;;;;30.97;12.10;;;4.60;99.90;;;;;;4961014;28;20466;-61
2021/10/17 01:42:56;;;;;;;85.93;12.07;;;4.60;99.90;;;;;;4962580;28;20474;-61
2021/10/17 01:45:21;;;;;;;50.83;11.03;;;4.60;99.90;;;;;;4961237;28;20469;-61
2021/10/17 01:47:51;;;;;;;21.90;10.77;;;4.50;99.90;;;;;;4958544;28;20182;-60
2021/10/17 01:50:18;;;;;;;50.93;13.60;;;4.50;99.90;;;;;;4962113;28;20205;-61
2021/10/17 01:52:44;;;;;;;29.23;13.13;;;4.50;99.90;;;;;;4958400;28;20533;-61
2021/10/17 01:55:10;;;;;;;96.17;15.77;;;4.60;99.90;;;;;;4949970;28;20522;-60
2021/10/17 01:57:37;;;;;;;67.20;13.57;;;4.60;99.90;;;;;;4941824;28;20426;-61
2021/10/17 02:00:05;;;;;;;144.60;17.57;;;4.50;99.90;;;;;;4959120;28;20253;-60
2021/10/17 02:02:31;;;;;;;30.10;13.53;;;4.50;99.90;;;;;;4961895;28;20437;-61
2021/10/17 02:04:57;;;;;;;60.10;14.80;;;4.50;99.90;;;;;;4950338;28;20823;-61
2021/10/17 02:07:22;;;;;;;77.43;15.77;;;4.50;99.90;;;;;;4962425;28;20209;-61
2021/10/17 02:09:48;;;;;;;63.90;12.50;;;4.50;99.90;;;;;;4964379;28;20202;-60
2021/10/17 02:12:16;;;;;;;85.67;12.00;;;4.50;99.90;;;;;;4965239;28;20198;-61
2021/10/17 02:14:41;;;;;;;48.43;12.53;;;4.50;99.90;;;;;;4961281;28;20558;-61
2021/10/17 02:17:07;;;;;;;217.20;15.00;;;4.40;99.90;;;;;;4948607;29;20422;-60
2021/10/17 02:19:33;;;;;;;87.53;13.00;;;4.40;99.90;;;;;;4964660;28;20541;-61
2021/10/17 02:21:59;;;;;;;113.50;14.13;;;4.30;99.90;;;;;;4961527;28;20187;-61
2021/10/17 02:24:25;;;;;;;82.93;13.50;;;4.30;99.90;;;;;;4949020;28;20444;-61
2021/10/17 02:26:51;;;;;;;114.50;13.70;;;4.30;99.90;;;;;;4964583;28;20205;-61
2021/10/17 02:29:17;;;;;;;82.60;13.20;;;4.20;99.90;;;;;;4963821;28;20508;-60
2021/10/17 02:31:42;;;;;;;142.40;14.17;;;4.20;99.90;;;;;;4947028;29;20185;-61
2021/10/17 02:34:08;;;;;;;151.83;14.80;;;4.20;99.90;;;;;;4949210;29;20440;-61
2021/10/17 02:36:34;;;;;;;49.53;11.17;;;4.20;99.90;;;;;;4964022;28;21296;-61
2021/10/17 02:38:59;;;;;;;29.23;12.07;;;4.10;99.90;;;;;;4959863;28;20258;-62
2021/10/17 02:41:25;;;;;;;67.63;12.60;;;4.20;99.90;;;;;;4962793;28;20230;-61
2021/10/17 02:43:51;;;;;;;45.67;11.90;;;4.20;99.90;;;;;;4963918;28;20790;-61
2021/10/17 02:46:17;;;;;;;40.57;11.80;;;4.10;99.90;;;;;;4963333;28;20202;-60
2021/10/17 02:48:42;;;;;;;30.50;9.53;;;4.10;99.90;;;;;;4961153;28;20178;-61
2021/10/17 02:51:09;;;;;;;111.63;12.67;;;4.10;99.90;;;;;;4964881;28;20488;-61
2021/10/17 02:53:34;;;;;;;28.20;10.03;;;4.10;99.90;;;;;;4963761;28;20558;-61
2021/10/17 02:56:00;;;;;;;59.50;10.83;;;4.10;99.90;;;;;;4964567;28;20972;-61
2021/10/17 02:58:26;;;;;;;62.27;11.63;;;4.10;99.90;;;;;;4964482;28;20182;-61
2021/10/17 03:00:52;;;;;;;81.67;11.83;;;4.10;99.90;;;;;;4963785;28;20210;-61
2021/10/17 03:03:17;;;;;;;78.13;12.13;;;4.00;99.90;;;;;;4948195;29;20438;-61
2021/10/17 03:05:43;;;;;;;66.63;10.60;;;4.00;99.90;;;;;;4962587;28;20598;-61
2021/10/17 03:08:09;;;;;;;75.93;12.23;;;4.00;99.90;;;;;;4964612;28;20177;-61
2021/10/17 03:10:35;;;;;;;42.17;9.93;;;4.00;99.90;;;;;;4962532;28;20462;-61
2021/10/17 03:13:01;;;;;;;66.40;11.13;;;4.00;99.90;;;;;;4963232;28;20679;-62
2021/10/17 03:15:26;;;;;;;44.20;9.80;;;4.00;99.90;;;;;;4965461;28;20181;-61
2021/10/17 03:17:54;;;;;;;48.97;10.13;;;4.00;99.90;;;;;;4966568;28;20247;-61
2021/10/17 03:20:21;;;;;;;70.50;11.20;;;4.00;99.90;;;;;;4967033;28;20216;-61
2021/10/17 03:22:47;;;;;;;41.97;10.13;;;4.00;99.90;;;;;;4968048;28;20429;-60
2021/10/17 03:25:12;;;;;;;109.13;11.63;;;4.00;99.90;;;;;;4967874;28;21010;-61
2021/10/17 03:27:38;;;;;;;65.80;11.37;;;4.00;99.90;;;;;;4952681;28;20197;-61
2021/10/17 03:30:05;;;;;;;60.37;10.47;;;4.00;99.90;;;;;;4967269;28;20314;-61
2021/10/17 03:32:31;;;;;;;30.20;9.10;;;4.00;99.90;;;;;;4967145;28;20425;-61
2021/10/17 03:34:56;;;;;;;84.43;11.83;;;4.00;99.90;;;;;;4967739;28;20436;-61
2021/10/17 03:37:22;;;;;;;117.53;12.17;;;4.00;99.90;;;;;;4966797;28;20640;-60
2021/10/17 03:39:48;;;;;;;25.73;10.17;;;4.00;99.90;;;;;;4964794;28;20214;-61
2021/10/17 03:42:13;;;;;;;32.27;10.83;;;4.00;99.90;;;;;;4966386;28;20193;-61
2021/10/17 03:44:39;;;;;;;22.97;9.80;;;4.00;99.90;;;;;;4965928;28;20206;-61
2021/10/17 03:47:05;;;;;;;48.57;10.90;;;4.00;99.90;;;;;;4966358;28;20211;-61
2021/10/17 03:49:31;;;;;;;51.23;11.20;;;4.00;99.90;;;;;;4967263;28;20665;-60
2021/10/17 03:51:57;;;;;;;57.77;11.47;;;4.00;99.90;;;;;;4967005;28;20193;-60
2021/10/17 03:54:22;;;;;;;27.23;11.00;;;4.00;99.90;;;;;;4951507;28;20437;-60
2021/10/17 03:56:48;;;;;;;40.00;12.37;;;4.00;99.90;;;;;;4967180;28;20850;-61
2021/10/17 03:59:15;;;;;;;51.03;12.97;;;4.00;99.90;;;;;;4965872;28;20245;-61
2021/10/17 04:01:41;;;;;;;67.97;10.93;;;4.00;99.90;;;;;;4961516;28;20190;-61
2021/10/17 04:04:07;;;;;;;62.03;11.20;;;4.00;99.90;;;;;;4962175;28;20445;-61
2021/10/17 04:06:36;;;;;;;48.23;10.93;;;4.00;99.90;;;;;;4965827;28;20744;-62
2021/10/17 04:09:02;;;;;;;70.13;10.93;;;3.90;99.90;;;;;;4961727;28;20205;-61
2021/10/17 04:11:28;;;;;;;58.37;9.67;;;3.90;99.90;;;;;;4950856;28;20804;-61
2021/10/17 04:13:54;;;;;;;96.20;11.13;;;3.80;99.90;;;;;;4963004;28;20540;-61
2021/10/17 04:16:19;;;;;;;80.57;10.40;;;3.70;99.90;;;;;;4948711;29;20210;-61
2021/10/17 04:18:45;;;;;;;66.47;11.20;;;3.70;99.90;;;;;;4964412;28;20181;-61
2021/10/17 04:21:10;;;;;;;78.13;10.83;;;3.60;99.90;;;;;;4964829;28;20186;-60
2021/10/17 04:23:36;;;;;;;67.00;9.63;;;3.60;99.90;;;;;;4963284;28;20609;-61
2021/10/17 04:26:02;;;;;;;85.73;9.53;;;3.50;99.90;;;;;;4946895;28;20648;-61
2021/10/17 04:28:28;;;;;;;61.53;9.70;;;3.50;99.90;;;;;;4947743;28;20258;-61
2021/10/17 04:30:53;;;;;;;63.40;10.10;;;3.40;99.90;;;;;;4963899;28;20683;-62
2021/10/17 04:33:19;;;;;;;48.63;9.20;;;3.40;99.90;;;;;;4946557;28;20194;-61
2021/10/17 04:35:45;;;;;;;88.13;11.10;;;3.40;99.90;;;;;;4964590;28;20718;-60
2021/10/17 04:38:14;;;;;;;82.40;12.50;;;3.40;99.90;;;;;;4963582;28;20178;-62
2021/10/17 04:40:42;;;;;;;88.63;10.70;;;3.40;99.90;;;;;;4963896;28;20461;-61
2021/10/17 04:43:07;;;;;;;96.53;11.43;;;3.40;99.90;;;;;;4962730;28;20438;-61
2021/10/17 04:45:37;;;;;;;61.70;8.87;;;3.40;99.90;;;;;;4964050;28;20461;-61
2021/10/17 04:48:04;;;;;;;124.57;10.87;;;3.40;99.90;;;;;;4964308;28;20211;-61
2021/10/17 04:50:29;;;;;;;57.47;10.47;;;3.30;99.90;;;;;;4943949;28;20473;-61
2021/10/17 04:52:55;;;;;;;100.63;10.87;;;3.30;99.90;;;;;;4947187;28;20442;-61
2021/10/17 04:55:21;;;;;;;99.80;12.07;;;3.40;99.90;;;;;;4959965;28;20218;-60
2021/10/17 04:57:46;;;;;;;56.80;11.27;;;3.40;99.90;;;;;;4962967;28;20179;-61
2021/10/17 05:00:13;;;;;;;73.67;11.00;;;3.30;99.90;;;;;;4961535;28;20231;-60
2021/10/17 05:02:38;;;;;;;99.77;12.17;;;3.30;99.90;;;;;;4963561;28;20229;-60
2021/10/17 05:05:07;;;;;;;95.40;10.63;;;3.30;99.90;;;;;;4944968;28;20951;-60
2021/10/17 05:07:32;;;;;;;122.93;11.50;;;3.30;99.90;;;;;;4962859;28;20184;-60
2021/10/17 05:09:58;;;;;;;74.47;11.87;;;3.30;99.90;;;;;;4949164;28;20456;-60
2021/10/17 05:12:24;;;;;;;84.83;10.97;;;3.30;99.90;;;;;;4946860;29;20425;-60
2021/10/17 05:14:50;;;;;;;60.70;11.17;;;3.20;99.90;;;;;;4960575;28;20174;-59
2021/10/17 05:17:16;;;;;;;68.23;10.10;;;3.30;99.90;;;;;;4960587;28;20564;-60
2021/10/17 05:19:42;;;;;;;97.63;10.80;;;3.30;99.90;;;;;;4947192;28;20455;-60
2021/10/17 05:22:07;;;;;;;23.80;9.93;;;3.30;99.90;;;;;;4945975;28;20175;-60
2021/10/17 05:24:33;;;;;;;89.17;10.80;;;3.30;99.90;;;;;;4945929;28;20265;-60
2021/10/17 05:26:59;;;;;;;51.87;11.13;;;3.30;99.90;;;;;;4960097;28;20585;-60
2021/10/17 05:29:24;;;;;;;66.37;9.97;;;3.30;99.90;;;;;;4962867;28;20194;-60
2021/10/17 05:31:50;;;;;;;58.83;11.00;;;3.30;99.90;;;;;;4961642;28;20181;-60
2021/10/17 05:34:16;;;;;;;53.23;10.40;;;3.30;99.90;;;;;;4961500;28;20547;-60
2021/10/17 05:36:41;;;;;;;23.60;9.90;;;3.30;99.90;;;;;;4945330;28;20197;-61
2021/10/17 05:39:07;;;;;;;28.13;9.80;;;3.30;99.90;;;;;;4962383;28;20199;-61
2021/10/17 05:41:33;;;;;;;33.77;12.27;;;3.30;99.90;;;;;;4946033;28;20755;-60
2021/10/17 05:43:58;;;;;;;51.67;11.93;;;3.40;99.90;;;;;;4948053;28;20966;-59
2021/10/17 05:46:24;;;;;;;48.63;10.50;;;3.40;99.90;;;;;;4960970;28;20205;-59
2021/10/17 05:48:50;;;;;;;64.00;12.10;;;3.50;99.90;;;;;;4961712;28;20190;-59
2021/10/17 05:51:16;;;;;;;41.90;10.87;;;3.50;99.90;;;;;;4945731;29;20605;-60
2021/10/17 05:53:41;;;;;;;37.20;10.90;;;3.50;99.90;;;;;;4946327;28;20184;-60
2021/10/17 05:56:07;;;;;;;65.10;11.00;;;3.50;99.90;;;;;;4961830;28;20237;-60
2021/10/17 05:58:33;;;;;;;54.83;10.40;;;3.50;99.90;;;;;;4962576;28;20178;-60
2021/10/17 06:00:59;;;;;;;28.50;8.40;;;3.50;99.90;;;;;;4943298;28;20789;-61
2021/10/17 06:03:25;;;;;;;54.30;11.73;;;3.50;99.90;;;;;;4959351;28;20521;-61
2021/10/17 06:05:50;;;;;;;49.93;11.83;;;3.50;99.90;;;;;;4976746;23;20243;-56
2021/10/17 06:08:18;;;;;;;30.60;11.23;;;3.50;99.90;;;;;;4963228;28;20192;-57
2021/10/17 06:10:44;;;;;;;32.30;10.43;;;3.50;99.90;;;;;;4966121;28;20242;-55
2021/10/17 06:13:09;;;;;;;20.77;9.93;;;3.60;99.90;;;;;;4963890;28;20428;-54
2021/10/17 06:15:35;;;;;;;41.30;11.53;;;3.60;99.90;;;;;;4961823;28;20559;-56
2021/10/17 06:18:01;;;;;;;22.83;10.60;;;3.60;99.90;;;;;;4960517;28;20706;-54
2021/10/17 06:20:26;;;;;;;29.23;10.50;;;3.70;99.90;;;;;;4956182;28;20189;-56
2021/10/17 06:22:52;;;;;;;19.17;10.40;;;3.70;99.90;;;;;;4959444;28;20173;-55
2021/10/17 06:25:18;;;;;;;25.40;11.00;;;3.70;99.90;;;;;;4945268;28;20185;-55
2021/10/17 06:27:43;;;;;;;21.47;10.53;;;3.70;99.90;;;;;;4973131;28;20228;-56
2021/10/17 06:30:09;;;;;;;16.87;9.83;;;3.70;99.90;;;;;;4962457;28;20747;-55
2021/10/17 06:32:35;;;;;;;26.03;11.20;;;3.80;99.90;;;;;;4960261;28;20182;-58
2021/10/17 06:35:01;;;;;;;22.10;11.20;;;3.80;99.90;;;;;;4952205;28;20596;-57
2021/10/17 06:37:27;;;;;;;20.90;10.90;;;3.80;99.90;;;;;;4959578;28;20289;-58
2021/10/17 06:39:52;;;;;;;21.10;10.90;;;3.90;99.90;;;;;;4956254;28;20280;-52
2021/10/17 06:42:18;;;;;;;21.67;10.80;;;3.90;99.90;;;;;;4947701;28;20707;-54
2021/10/17 06:44:43;;;;;;;24.73;11.57;;;4.00;99.90;;;;;;4952617;28;20190;-55
2021/10/17 06:47:09;;;;;;;21.90;11.27;;;4.00;99.90;;;;;;4952600;28;20228;-56
2021/10/17 06:49:35;;;;;;;23.33;10.33;;;4.10;99.90;;;;;;4955039;28;21790;-57
2021/10/17 06:52:00;;;;;;;27.50;11.50;;;4.10;99.90;;;;;;4955843;28;20612;-56
2021/10/17 06:54:26;;;;;;;28.23;10.50;;;4.20;99.90;;;;;;4957930;28;20186;-57
2021/10/17 06:56:51;;;;;;;32.77;11.57;;;4.20;99.90;;;;;;4956706;28;20205;-58
2021/10/17 06:59:17;;;;;;;21.60;10.50;;;4.20;99.90;;;;;;4956671;28;20210;-57
2021/10/17 07:01:43;;;;;;;22.87;10.70;;;4.30;99.90;;;;;;4953315;28;20193;-58
2021/10/17 07:04:08;;;;;;;22.33;11.53;;;4.30;99.90;;;;;;4958730;28;20188;-58
2021/10/17 07:06:34;;;;;;;29.07;10.93;;;4.30;99.90;;;;;;4952114;28;21137;-56
2021/10/17 07:09:00;;;;;;;24.03;10.70;;;4.40;99.90;;;;;;4956488;28;20181;-55
2021/10/17 07:11:25;;;;;;;34.57;9.77;;;4.40;99.90;;;;;;4955912;28;20182;-58
2021/10/17 07:13:51;;;;;;;37.97;10.37;;;4.50;99.90;;;;;;4956387;28;20667;-59
2021/10/17 07:16:16;;;;;;;23.73;10.57;;;4.40;99.90;;;;;;4955389;28;20208;-59
2021/10/17 07:18:42;;;;;;;26.30;11.80;;;4.50;99.90;;;;;;4952175;28;20231;-58
2021/10/17 07:21:08;;;;;;;31.83;13.00;;;4.50;99.90;;;;;;4959781;28;20240;-56
2021/10/17 07:23:33;;;;;;;37.37;13.00;;;4.50;99.90;;;;;;4950957;28;20253;-59
2021/10/17 07:25:59;;;;;;;29.97;12.00;;;4.50;99.90;;;;;;4958525;28;20210;-56
2021/10/17 07:28:24;;;;;;;32.43;11.20;;;4.60;99.90;;;;;;4957577;28;20210;-57
2021/10/17 07:30:50;;;;;;;52.53;12.97;;;4.60;99.90;;;;;;4975281;28;20265;-57
2021/10/17 07:33:16;;;;;;;32.43;10.67;;;4.70;99.90;;;;;;4960226;28;20175;-57
2021/10/17 07:35:42;;;;;;;36.57;12.63;;;4.70;99.90;;;;;;4941441;28;20175;-58
2021/10/17 07:38:07;;;;;;;28.20;12.20;;;4.60;99.90;;;;;;4957977;28;20175;-58
2021/10/17 07:40:33;;;;;;;29.50;12.30;;;4.70;99.90;;;;;;4973092;28;20177;-56
2021/10/17 07:42:59;;;;;;;57.03;14.13;;;4.80;99.90;;;;;;4959577;28;20189;-58
2021/10/17 07:45:25;;;;;;;39.80;14.00;;;4.80;99.90;;;;;;4960956;28;20435;-56
2021/10/17 07:47:51;;;;;;;39.47;16.10;;;4.80;99.90;;;;;;4962714;28;20180;-57
2021/10/17 07:50:16;;;;;;;36.30;13.43;;;4.80;99.90;;;;;;4963076;28;20200;-61
2021/10/17 07:52:42;;;;;;;30.73;14.00;;;4.90;99.90;;;;;;4964268;28;20285;-58
2021/10/17 07:55:08;;;;;;;33.33;13.70;;;5.00;99.90;;;;;;4930144;28;20178;-57
2021/10/17 07:57:48;;;;;;;42.73;15.20;;;5.00;99.90;;;;;;4962507;28;20256;-59
2021/10/17 08:00:17;;;;;;;36.37;13.33;;;5.10;99.90;;;;;;4960120;28;20428;-59
2021/10/17 08:02:42;;;;;;;39.20;13.57;;;5.20;99.90;;;;;;4941781;28;20432;-58
2021/10/17 08:05:08;;;;;;;32.33;13.87;;;5.20;99.90;;;;;;4963990;28;20447;-58
2021/10/17 08:07:34;;;;;;;36.30;14.43;;;5.20;99.90;;;;;;4963013;28;20401;-57
2021/10/17 08:10:00;;;;;;;35.37;13.30;;;5.30;99.90;;;;;;4959069;28;20187;-57
2021/10/17 08:12:26;;;;;;;34.80;14.03;;;5.30;99.90;;;;;;4960540;28;20193;-57
2021/10/17 08:14:52;;;;;;;36.80;14.20;;;5.40;99.90;;;;;;4959586;28;20501;-58
2021/10/17 08:17:18;;;;;;;57.03;15.63;;;5.50;99.90;;;;;;4960694;28;20206;-59
2021/10/17 08:19:43;;;;;;;46.03;15.13;;;5.60;99.90;;;;;;4958036;28;20184;-59
2021/10/17 08:22:09;;;;;;;45.00;15.80;;;5.60;99.90;;;;;;4956986;28;20257;-57
2021/10/17 08:24:35;;;;;;;53.37;16.83;;;5.70;99.90;;;;;;4958303;28;20655;-58
2021/10/17 08:27:00;;;;;;;48.63;16.83;;;5.70;99.90;;;;;;4958409;28;20607;-58
2021/10/17 08:29:26;;;;;;;55.33;16.70;;;5.80;99.90;;;;;;4959278;28;20185;-58
2021/10/17 08:31:51;;;;;;;55.80;17.90;;;5.80;99.90;;;;;;4976818;28;20178;-59
2021/10/17 08:34:17;;;;;;;50.20;17.80;;;5.80;99.90;;;;;;4957818;28;20194;-58
2021/10/17 08:36:43;;;;;;;44.40;15.17;;;5.80;99.90;;;;;;4944086;28;20273;-57
2021/10/17 08:39:08;;;;;;;42.50;16.40;;;5.90;99.90;;;;;;4959235;28;20205;-58
2021/10/17 08:41:34;;;;;;;42.33;15.43;;;5.90;99.90;;;;;;4957966;28;20186;-57
2021/10/17 08:44:01;;;;;;;44.23;16.70;;;5.90;99.90;;;;;;4962757;28;20186;-56
2021/10/17 08:46:28;;;;;;;48.23;16.90;;;6.00;99.90;;;;;;4968849;28;20210;-60
2021/10/17 08:48:57;;;;;;;43.47;15.07;;;6.00;99.90;;;;;;4963308;28;20426;-58
2021/10/17 08:51:24;;;;;;;38.03;15.53;;;6.10;99.90;;;;;;4967341;28;20475;-56
2021/10/17 08:53:50;;;;;;;44.87;16.00;;;6.20;99.90;;;;;;4968340;28;20728;-58
2021/10/17 08:56:16;;;;;;;44.70;16.47;;;6.30;99.90;;;;;;4967284;28;21126;-54
2021/10/17 08:58:42;;;;;;;44.07;16.00;;;6.40;99.90;;;;;;4971316;28;20429;-59
2021/10/17 09:01:13;;;;;;;47.57;16.60;;;6.40;99.90;;;;;;4962149;28;20182;-59
2021/10/17 09:03:39;;;;;;;37.30;15.80;;;6.50;99.90;;;;;;4965672;28;20228;-57
2021/10/17 09:06:18;;;;;;;45.40;16.83;;;6.60;99.90;;;;;;4957068;28;21015;-59
2021/10/17 09:08:44;;;;;;;44.53;15.57;;;6.70;99.90;;;;;;4957949;28;20418;-55
2021/10/17 09:11:11;;;;;;;58.63;18.33;;;6.80;99.90;;;;;;4954350;28;20552;-58
2021/10/17 09:13:56;;;;;;;49.20;16.73;;;6.80;99.90;;;;;;4959143;28;20180;-59
2021/10/17 09:16:23;;;;;;;45.80;15.70;;;6.90;99.90;;;;;;4960234;28;20806;-58
2021/10/17 09:19:07;;;;;;;55.30;18.63;;;6.90;99.90;;;;;;4962828;28;20538;-56
2021/10/17 09:21:34;;;;;;;59.63;19.43;;;7.00;99.90;;;;;;4953465;28;20502;-58
2021/10/17 09:23:59;;;;;;;50.10;18.97;;;7.00;99.90;;;;;;4950945;28;20789;-59
2021/10/17 09:26:25;;;;;;;59.83;19.43;;;7.10;99.90;;;;;;4956501;28;20483;-58
2021/10/17 09:28:51;;;;;;;48.77;18.67;;;7.10;99.90;;;;;;4952736;28;20253;-57
2021/10/17 09:31:19;;;;;;;43.30;17.20;;;7.20;99.90;;;;;;4953584;28;20744;-56
2021/10/17 09:33:54;;;;;;;52.50;19.43;;;7.30;99.90;;;;;;4961821;28;20483;-55
2021/10/17 09:36:21;;;;;;;50.07;17.80;;;7.50;99.90;;;;;;4950835;28;20860;-58
2021/10/17 09:38:50;;;;;;;56.67;20.87;;;7.60;99.90;;;;;;4965428;28;20437;-61
2021/10/17 09:41:23;;;;;;;46.63;18.47;;;7.80;99.90;;;;;;4952814;28;20472;-57
2021/10/17 09:43:58;;;;;;;50.33;20.27;;;8.00;99.90;;;;;;4956798;28;20540;-59
2021/10/17 09:46:25;;;;;;;52.73;19.87;;;8.20;99.90;;;;;;4961019;28;20484;-58
2021/10/17 09:48:51;;;;;;;49.40;20.20;;;8.40;99.90;;;;;;4951446;28;20550;-60
2021/10/17 09:51:28;;;;;;;52.63;21.63;;;8.60;99.90;;;;;;4949966;28;20532;-60
2021/10/17 09:53:56;;;;;;;52.13;20.80;;;8.70;99.90;;;;;;4958563;28;20557;-57
2021/10/17 09:56:40;;;;;;;52.80;21.80;;;8.80;99.90;;;;;;4956404;28;20451;-58
2021/10/17 09:59:11;;;;;;;48.80;21.47;;;8.90;99.90;;;;;;4959166;28;20437;-57
2021/10/17 10:01:38;;;;;;;49.00;20.53;;;9.10;99.90;;;;;;4950506;28;20991;-60
2021/10/17 10:04:06;;;;;;;47.63;21.20;;;9.20;99.90;;;;;;4949708;28;20433;-59
2021/10/17 10:06:32;;;;;;;51.00;23.63;;;9.30;99.90;;;;;;4952752;28;20472;-57
2021/10/17 10:09:03;;;;;;;45.33;20.07;;;9.50;99.90;;;;;;4950297;28;20861;-57
2021/10/17 10:11:30;;;;;;;42.20;20.60;;;9.70;99.90;;;;;;4952091;28;20425;-57
2021/10/17 10:13:59;;;;;;;47.50;21.37;;;9.80;99.90;;;;;;4959758;28;20484;-56
2021/10/17 10:16:28;;;;;;;47.83;22.37;;;9.90;99.90;;;;;;4957855;28;20457;-56
2021/10/17 10:18:59;;;;;;;49.07;21.67;;;10.00;99.90;;;;;;4967133;28;20536;-56
2021/10/17 10:21:26;;;;;;;42.83;20.43;;;10.10;99.90;;;;;;4953450;28;20524;-57
2021/10/17 10:23:56;;;;;;;42.20;20.33;;;10.20;99.90;;;;;;4956749;28;20430;-57
2021/10/17 10:26:24;;;;;;;44.90;21.50;;;10.30;99.90;;;;;;4957354;28;20831;-57
2021/10/17 10:28:51;;;;;;;43.30;21.70;;;10.50;99.90;;;;;;4956920;28;20440;-59
2021/10/17 10:31:46;;;;;;;42.67;20.00;;;10.70;99.90;;;;;;4954088;28;20466;-57
2021/10/17 10:34:23;;;;;;;40.10;19.90;;;10.80;99.90;;;;;;4959041;28;20966;-59
2021/10/17 10:36:53;;;;;;;40.00;19.97;;;10.90;99.90;;;;;;4951538;28;20464;-58
2021/10/17 10:39:32;;;;;;;43.23;20.90;;;11.10;99.90;;;;;;4952692;28;20544;-64
2021/10/17 10:42:14;;;;;;;37.17;19.33;;;11.30;99.90;;;;;;4954118;28;20440;-58
2021/10/17 10:44:42;;;;;;;35.93;19.60;;;11.30;99.90;;;;;;4960154;28;20450;-61
2021/10/17 10:47:41;;;;;;;41.80;19.83;;;11.30;99.90;;;;;;4959533;28;20640;-58
2021/10/17 10:50:07;;;;;;;40.70;19.57;;;11.10;99.90;;;;;;4925172;28;20872;-57
2021/10/17 10:52:41;;;;;;;32.47;18.90;;;10.90;99.90;;;;;;4958591;28;20430;-55
2021/10/17 10:55:08;;;;;;;39.83;19.27;;;10.80;99.90;;;;;;4955050;28;20170;-59
2021/10/17 10:57:47;;;;;;;42.60;19.87;;;10.70;99.90;;;;;;4953438;28;20453;-60
2021/10/17 11:00:15;;;;;;;40.53;19.30;;;10.60;99.90;;;;;;4952014;28;20433;-58
2021/10/17 11:03:09;;;;;;;39.53;19.63;;;10.60;99.90;;;;;;4948301;28;20580;-58
2021/10/17 11:05:35;;;;;;;40.00;19.93;;;10.60;99.90;;;;;;4951252;28;20436;-58
2021/10/17 11:08:14;;;;;;;43.37;20.50;;;10.60;99.90;;;;;;4953095;28;20836;-58
2021/10/17 11:10:42;;;;;;;41.03;19.57;;;10.60;99.90;;;;;;4954970;28;20588;-57
2021/10/17 11:13:10;;;;;;;38.03;19.10;;;10.60;99.90;;;;;;4958206;28;20476;-56
2021/10/17 11:15:39;;;;;;;38.07;20.40;;;10.60;99.90;;;;;;4957233;28;20437;-56
2021/10/17 11:18:32;;;;;;;37.27;19.60;;;10.60;99.90;;;;;;4955862;28;20438;-60
2021/10/17 11:20:58;;;;;;;46.77;20.10;;;10.60;99.90;;;;;;4958342;28;20429;-56
2021/10/17 11:23:26;;;;;;;41.67;19.90;;;10.60;99.90;;;;;;4960360;28;20437;-57
2021/10/17 11:25:54;;;;;;;41.53;19.00;;;10.80;99.90;;;;;;4965775;28;20478;-59
2021/10/17 11:28:21;;;;;;;35.27;19.80;;;11.40;99.90;;;;;;4954970;28;20441;-58
2021/10/17 11:30:47;;;;;;;36.87;20.33;;;12.00;99.90;;;;;;4950548;28;20580;-60
2021/10/17 11:33:23;;;;;;;39.03;19.20;;;12.40;99.90;;;;;;4951170;28;20512;-61
2021/10/17 11:35:49;;;;;;;41.07;21.03;;;12.50;99.90;;;;;;4968494;28;21345;-58
2021/10/17 11:38:18;;;;;;;41.00;21.30;;;12.50;99.90;;;;;;4960205;28;20508;-59
2021/10/17 11:40:44;;;;;;;32.77;16.40;;;12.40;99.90;;;;;;4951842;28;20445;-60
2021/10/17 11:43:11;;;;;;;32.00;17.20;;;12.60;99.90;;;;;;4959255;28;20440;-59
2021/10/17 11:45:47;;;;;;;32.70;17.70;;;13.40;99.20;;;;;;4950008;28;20445;-61
2021/10/17 11:48:15;;;;;;;34.50;17.37;;;14.10;95.50;;;;;;4952286;28;20803;-60
2021/10/17 11:50:43;;;;;;;33.00;18.30;;;14.60;91.30;;;;;;4959470;28;20461;-62
2021/10/17 11:53:11;;;;;;;31.43;17.60;;;15.40;87.70;;;;;;4949114;28;20588;-57
2021/10/17 11:55:46;;;;;;;33.87;18.60;;;15.60;80.60;;;;;;4951176;28;20532;-60
2021/10/17 11:58:21;;;;;;;29.93;17.77;;;16.10;76.70;;;;;;4964156;28;20527;-58
2021/10/17 12:00:50;;;;;;;30.27;18.57;;;16.80;73.60;;;;;;4951082;28;20720;-57
2021/10/17 12:03:21;;;;;;;26.87;17.07;;;17.30;68.60;;;;;;4954649;28;20433;-62
2021/10/17 12:05:48;;;;;;;31.00;17.03;;;18.10;63.30;;;;;;4959216;28;20550;-60
2021/10/17 12:08:28;;;;;;;29.80;18.50;;;18.40;59.70;;;;;;4976087;23;20573;-63
2021/10/17 12:11:11;;;;;;;29.73;18.70;;;19.10;58.80;;;;;;4966297;28;20514;-62
2021/10/17 12:13:45;;;;;;;25.67;16.30;;;19.30;54.80;;;;;;4951166;28;20450;-61
2021/10/17 12:16:16;;;;;;;28.53;17.70;;;19.10;54.50;;;;;;4954436;28;20603;-63
2021/10/17 12:18:43;;;;;;;28.20;17.47;;;18.40;55.20;;;;;;4938552;29;21037;-62
2021/10/17 12:21:10;;;;;;;30.60;17.93;;;17.70;57.60;;;;;;4937582;29;20990;-63
2021/10/17 12:23:37;;;;;;;28.90;18.10;;;17.80;59.00;;;;;;4946394;28;20960;-62
2021/10/17 12:26:03;;;;;;;34.10;18.50;;;18.20;57.40;;;;;;4934740;28;22140;-63
2021/10/17 12:28:28;;;;;;;29.43;17.17;;;18.20;55.40;;;;;;4939960;29;20447;-63
2021/10/17 12:30:55;;;;;;;26.93;16.57;;;18.00;56.00;;;;;;4939520;29;20441;-62
2021/10/17 12:33:36;;;;;;;30.33;17.40;;;18.00;56.30;;;;;;4939545;28;20182;-64
2021/10/17 12:36:03;;;;;;;31.60;17.77;;;18.00;56.40;;;;;;4941391;29;20449;-63